sensor_id;sensor_type;location;lat;lon;timestamp;P1;durP1;ratioP1;P2;durP2;ratioP2
26702;SDS011;14316;51.074;3.704;2023-04-03T00:01:16;9.02;;;7.20;;
26702;SDS011;14316;51.074;3.704;2023-04-03T00:03:42;13.40;;;7.53;;
26702;SDS011;14316;51.074;3.704;2023-04-03T00:06:09;9.88;;;7.28;;
26702;SDS011;14316;51.074;3.704;2023-04-03T00:08:37;9.10;;;7.50;;
26702;SDS011;14316;51.074;3.704;2023-04-03T00:11:04;9.00;;;7.45;;
26702;SDS011;14316;51.074;3.704;2023-04-03T00:13:31;10.18;;;7.40;;
26702;SDS011;14316;51.074;3.704;2023-04-03T00:15:58;9.95;;;7.18;;
26702;SDS011;14316;51.074;3.704;2023-04-03T00:18:24;9.45;;;7.57;;
26702;SDS011;14316;51.074;3.704;2023-04-03T00:20:50;11.85;;;7.40;;
26702;SDS011;14316;51.074;3.704;2023-04-03T00:23:16;7.93;;;7.03;;
26702;SDS011;14316;51.074;3.704;2023-04-03T00:25:43;9.88;;;7.53;;
26702;SDS011;14316;51.074;3.704;2023-04-03T00:28:09;10.50;;;7.75;;
26702;SDS011;14316;51.074;3.704;2023-04-03T00:30:35;9.85;;;7.22;;
26702;SDS011;14316;51.074;3.704;2023-04-03T00:33:01;8.82;;;7.60;;
26702;SDS011;14316;51.074;3.704;2023-04-03T00:35:27;9.93;;;7.28;;
26702;SDS011;14316;51.074;3.704;2023-04-03T00:37:55;8.68;;;7.50;;
26702;SDS011;14316;51.074;3.704;2023-04-03T00:40:22;8.35;;;7.28;;
26702;SDS011;14316;51.074;3.704;2023-04-03T00:42:52;8.60;;;7.70;;
26702;SDS011;14316;51.074;3.704;2023-04-03T00:47:55;9.48;;;7.78;;
26702;SDS011;14316;51.074;3.704;2023-04-03T00:50:24;8.93;;;8.05;;
26702;SDS011;14316;51.074;3.704;2023-04-03T00:52:52;11.25;;;7.53;;
26702;SDS011;14316;51.074;3.704;2023-04-03T00:55:19;8.80;;;7.70;;
26702;SDS011;14316;51.074;3.704;2023-04-03T00:57:45;11.07;;;7.80;;
26702;SDS011;14316;51.074;3.704;2023-04-03T01:00:13;8.55;;;7.35;;
26702;SDS011;14316;51.074;3.704;2023-04-03T01:02:42;9.25;;;7.32;;
26702;SDS011;14316;51.074;3.704;2023-04-03T01:05:08;9.35;;;7.65;;
26702;SDS011;14316;51.074;3.704;2023-04-03T01:07:34;8.40;;;7.60;;
26702;SDS011;14316;51.074;3.704;2023-04-03T01:10:04;11.02;;;8.00;;
26702;SDS011;14316;51.074;3.704;2023-04-03T01:12:34;9.50;;;7.35;;
26702;SDS011;14316;51.074;3.704;2023-04-03T01:15:06;11.05;;;7.93;;
26702;SDS011;14316;51.074;3.704;2023-04-03T01:17:45;9.48;;;8.13;;
26702;SDS011;14316;51.074;3.704;2023-04-03T01:25:30;13.38;;;8.48;;
26702;SDS011;14316;51.074;3.704;2023-04-03T01:27:57;10.38;;;8.70;;
26702;SDS011;14316;51.074;3.704;2023-04-03T01:30:24;11.80;;;8.32;;
26702;SDS011;14316;51.074;3.704;2023-04-03T01:35:21;10.13;;;7.75;;
26702;SDS011;14316;51.074;3.704;2023-04-03T01:37:47;8.88;;;7.40;;
26702;SDS011;14316;51.074;3.704;2023-04-03T01:40:13;12.35;;;8.25;;
26702;SDS011;14316;51.074;3.704;2023-04-03T01:42:39;9.52;;;7.43;;
26702;SDS011;14316;51.074;3.704;2023-04-03T01:45:05;9.18;;;7.25;;
26702;SDS011;14316;51.074;3.704;2023-04-03T01:47:31;9.90;;;7.30;;
26702;SDS011;14316;51.074;3.704;2023-04-03T01:49:57;10.23;;;7.53;;
26702;SDS011;14316;51.074;3.704;2023-04-03T01:52:24;11.07;;;7.80;;
26702;SDS011;14316;51.074;3.704;2023-04-03T01:54:50;9.25;;;6.97;;
26702;SDS011;14316;51.074;3.704;2023-04-03T01:57:16;9.40;;;7.70;;
26702;SDS011;14316;51.074;3.704;2023-04-03T01:59:42;8.02;;;7.03;;
26702;SDS011;14316;51.074;3.704;2023-04-03T02:02:08;9.55;;;7.68;;
26702;SDS011;14316;51.074;3.704;2023-04-03T02:04:34;9.60;;;7.82;;
26702;SDS011;14316;51.074;3.704;2023-04-03T02:07:00;11.40;;;7.95;;
26702;SDS011;14316;51.074;3.704;2023-04-03T02:09:26;10.70;;;8.63;;
26702;SDS011;14316;51.074;3.704;2023-04-03T02:11:52;9.43;;;8.50;;
26702;SDS011;14316;51.074;3.704;2023-04-03T02:14:18;11.05;;;8.43;;
26702;SDS011;14316;51.074;3.704;2023-04-03T02:16:45;10.88;;;8.60;;
26702;SDS011;14316;51.074;3.704;2023-04-03T02:19:11;11.65;;;9.15;;
26702;SDS011;14316;51.074;3.704;2023-04-03T02:21:37;9.48;;;8.27;;
26702;SDS011;14316;51.074;3.704;2023-04-03T02:24:03;10.48;;;8.10;;
26702;SDS011;14316;51.074;3.704;2023-04-03T02:26:30;8.85;;;7.95;;
26702;SDS011;14316;51.074;3.704;2023-04-03T02:28:56;12.38;;;8.38;;
26702;SDS011;14316;51.074;3.704;2023-04-03T02:31:22;13.30;;;8.57;;
26702;SDS011;14316;51.074;3.704;2023-04-03T02:33:49;11.68;;;8.70;;
26702;SDS011;14316;51.074;3.704;2023-04-03T02:36:15;11.18;;;8.45;;
26702;SDS011;14316;51.074;3.704;2023-04-03T02:38:41;11.18;;;8.27;;
26702;SDS011;14316;51.074;3.704;2023-04-03T02:41:08;9.93;;;8.02;;
26702;SDS011;14316;51.074;3.704;2023-04-03T02:43:36;11.15;;;8.60;;
26702;SDS011;14316;51.074;3.704;2023-04-03T02:46:02;10.80;;;8.48;;
26702;SDS011;14316;51.074;3.704;2023-04-03T02:48:28;10.38;;;8.07;;
26702;SDS011;14316;51.074;3.704;2023-04-03T02:50:54;13.50;;;8.15;;
26702;SDS011;14316;51.074;3.704;2023-04-03T02:53:21;9.80;;;8.05;;
26702;SDS011;14316;51.074;3.704;2023-04-03T02:55:47;11.00;;;8.68;;
26702;SDS011;14316;51.074;3.704;2023-04-03T02:58:13;12.98;;;8.68;;
26702;SDS011;14316;51.074;3.704;2023-04-03T03:00:40;10.13;;;8.10;;
26702;SDS011;14316;51.074;3.704;2023-04-03T03:03:06;10.70;;;8.68;;
26702;SDS011;14316;51.074;3.704;2023-04-03T03:05:33;11.40;;;8.90;;
26702;SDS011;14316;51.074;3.704;2023-04-03T03:07:59;12.38;;;8.20;;
26702;SDS011;14316;51.074;3.704;2023-04-03T03:10:25;11.93;;;8.60;;
26702;SDS011;14316;51.074;3.704;2023-04-03T03:12:51;10.30;;;8.93;;
26702;SDS011;14316;51.074;3.704;2023-04-03T03:15:17;12.45;;;8.75;;
26702;SDS011;14316;51.074;3.704;2023-04-03T03:17:44;12.50;;;8.70;;
26702;SDS011;14316;51.074;3.704;2023-04-03T03:20:11;10.82;;;8.77;;
26702;SDS011;14316;51.074;3.704;2023-04-03T03:22:39;12.07;;;8.85;;
26702;SDS011;14316;51.074;3.704;2023-04-03T03:25:05;9.68;;;8.27;;
26702;SDS011;14316;51.074;3.704;2023-04-03T03:27:31;10.65;;;8.65;;
26702;SDS011;14316;51.074;3.704;2023-04-03T03:29:57;9.45;;;7.95;;
26702;SDS011;14316;51.074;3.704;2023-04-03T03:32:23;10.38;;;8.63;;
26702;SDS011;14316;51.074;3.704;2023-04-03T03:34:49;9.85;;;8.15;;
26702;SDS011;14316;51.074;3.704;2023-04-03T03:37:15;9.55;;;7.93;;
26702;SDS011;14316;51.074;3.704;2023-04-03T03:39:41;9.45;;;8.13;;
26702;SDS011;14316;51.074;3.704;2023-04-03T03:42:07;10.60;;;7.80;;
26702;SDS011;14316;51.074;3.704;2023-04-03T03:44:33;9.38;;;7.70;;
26702;SDS011;14316;51.074;3.704;2023-04-03T03:46:59;9.00;;;8.10;;
26702;SDS011;14316;51.074;3.704;2023-04-03T03:49:25;8.57;;;7.68;;
26702;SDS011;14316;51.074;3.704;2023-04-03T03:51:51;10.63;;;8.60;;
26702;SDS011;14316;51.074;3.704;2023-04-03T03:54:18;10.45;;;9.00;;
26702;SDS011;14316;51.074;3.704;2023-04-03T03:56:43;9.43;;;8.00;;
26702;SDS011;14316;51.074;3.704;2023-04-03T03:59:11;12.27;;;9.00;;
26702;SDS011;14316;51.074;3.704;2023-04-03T04:01:37;12.50;;;8.80;;
26702;SDS011;14316;51.074;3.704;2023-04-03T04:04:03;10.98;;;8.45;;
26702;SDS011;14316;51.074;3.704;2023-04-03T04:06:30;11.07;;;8.55;;
26702;SDS011;14316;51.074;3.704;2023-04-03T04:08:55;11.32;;;7.60;;
26702;SDS011;14316;51.074;3.704;2023-04-03T04:11:21;10.38;;;9.30;;
26702;SDS011;14316;51.074;3.704;2023-04-03T04:13:47;12.57;;;8.93;;
26702;SDS011;14316;51.074;3.704;2023-04-03T04:16:13;10.73;;;8.90;;
26702;SDS011;14316;51.074;3.704;2023-04-03T04:18:39;10.20;;;9.07;;
26702;SDS011;14316;51.074;3.704;2023-04-03T04:21:05;12.55;;;9.55;;
26702;SDS011;14316;51.074;3.704;2023-04-03T04:23:31;10.10;;;9.15;;
26702;SDS011;14316;51.074;3.704;2023-04-03T04:25:57;11.57;;;9.25;;
26702;SDS011;14316;51.074;3.704;2023-04-03T04:28:23;12.45;;;9.48;;
26702;SDS011;14316;51.074;3.704;2023-04-03T04:30:49;13.48;;;9.50;;
26702;SDS011;14316;51.074;3.704;2023-04-03T04:33:15;12.00;;;9.75;;
26702;SDS011;14316;51.074;3.704;2023-04-03T04:35:42;10.52;;;9.43;;
26702;SDS011;14316;51.074;3.704;2023-04-03T04:38:08;11.35;;;9.98;;
26702;SDS011;14316;51.074;3.704;2023-04-03T04:40:34;13.38;;;9.55;;
26702;SDS011;14316;51.074;3.704;2023-04-03T04:43:01;13.77;;;9.43;;
26702;SDS011;14316;51.074;3.704;2023-04-03T04:45:27;11.23;;;9.93;;
26702;SDS011;14316;51.074;3.704;2023-04-03T04:47:54;12.38;;;9.77;;
26702;SDS011;14316;51.074;3.704;2023-04-03T04:50:20;15.88;;;10.23;;
26702;SDS011;14316;51.074;3.704;2023-04-03T04:52:46;13.00;;;10.32;;
26702;SDS011;14316;51.074;3.704;2023-04-03T04:55:13;13.27;;;10.45;;
26702;SDS011;14316;51.074;3.704;2023-04-03T04:57:39;14.00;;;9.57;;
26702;SDS011;14316;51.074;3.704;2023-04-03T05:00:05;12.57;;;10.38;;
26702;SDS011;14316;51.074;3.704;2023-04-03T05:02:31;12.98;;;9.80;;
26702;SDS011;14316;51.074;3.704;2023-04-03T05:04:57;14.27;;;11.13;;
26702;SDS011;14316;51.074;3.704;2023-04-03T05:07:23;17.95;;;13.32;;
26702;SDS011;14316;51.074;3.704;2023-04-03T05:09:49;19.70;;;13.98;;
26702;SDS011;14316;51.074;3.704;2023-04-03T05:12:16;21.67;;;14.95;;
26702;SDS011;14316;51.074;3.704;2023-04-03T05:14:42;19.02;;;15.55;;
26702;SDS011;14316;51.074;3.704;2023-04-03T05:17:07;20.77;;;15.07;;
26702;SDS011;14316;51.074;3.704;2023-04-03T05:19:34;15.27;;;13.45;;
26702;SDS011;14316;51.074;3.704;2023-04-03T05:22:00;16.63;;;12.20;;
26702;SDS011;14316;51.074;3.704;2023-04-03T05:24:26;15.45;;;12.15;;
26702;SDS011;14316;51.074;3.704;2023-04-03T05:26:52;13.70;;;11.95;;
26702;SDS011;14316;51.074;3.704;2023-04-03T05:29:17;15.68;;;12.52;;
26702;SDS011;14316;51.074;3.704;2023-04-03T05:31:44;17.70;;;12.48;;
26702;SDS011;14316;51.074;3.704;2023-04-03T05:34:11;13.02;;;11.65;;
26702;SDS011;14316;51.074;3.704;2023-04-03T05:36:36;19.63;;;12.57;;
26702;SDS011;14316;51.074;3.704;2023-04-03T05:39:02;15.00;;;11.95;;
26702;SDS011;14316;51.074;3.704;2023-04-03T05:41:29;17.88;;;12.18;;
26702;SDS011;14316;51.074;3.704;2023-04-03T05:43:55;14.18;;;11.73;;
26702;SDS011;14316;51.074;3.704;2023-04-03T05:46:21;19.17;;;12.25;;
26702;SDS011;14316;51.074;3.704;2023-04-03T05:48:47;17.95;;;12.88;;
26702;SDS011;14316;51.074;3.704;2023-04-03T05:51:21;16.08;;;12.77;;
26702;SDS011;14316;51.074;3.704;2023-04-03T05:53:52;14.82;;;13.30;;
26702;SDS011;14316;51.074;3.704;2023-04-03T05:56:28;17.48;;;12.82;;
26702;SDS011;14316;51.074;3.704;2023-04-03T05:58:54;16.83;;;13.60;;
26702;SDS011;14316;51.074;3.704;2023-04-03T06:01:20;14.90;;;12.73;;
26702;SDS011;14316;51.074;3.704;2023-04-03T06:03:46;15.30;;;12.52;;
26702;SDS011;14316;51.074;3.704;2023-04-03T06:06:12;18.95;;;13.77;;
26702;SDS011;14316;51.074;3.704;2023-04-03T06:08:39;15.90;;;12.65;;
26702;SDS011;14316;51.074;3.704;2023-04-03T06:11:05;20.33;;;13.77;;
26702;SDS011;14316;51.074;3.704;2023-04-03T06:13:33;17.27;;;12.55;;
26702;SDS011;14316;51.074;3.704;2023-04-03T06:16:00;15.88;;;12.30;;
26702;SDS011;14316;51.074;3.704;2023-04-03T06:18:27;19.55;;;12.70;;
26702;SDS011;14316;51.074;3.704;2023-04-03T06:20:54;20.92;;;12.20;;
26702;SDS011;14316;51.074;3.704;2023-04-03T06:23:20;15.23;;;12.65;;
26702;SDS011;14316;51.074;3.704;2023-04-03T06:25:46;17.98;;;12.98;;
26702;SDS011;14316;51.074;3.704;2023-04-03T06:28:12;20.85;;;12.43;;
26702;SDS011;14316;51.074;3.704;2023-04-03T06:30:38;17.92;;;12.93;;
26702;SDS011;14316;51.074;3.704;2023-04-03T06:33:04;19.27;;;12.25;;
26702;SDS011;14316;51.074;3.704;2023-04-03T06:35:30;18.90;;;13.95;;
26702;SDS011;14316;51.074;3.704;2023-04-03T06:37:56;18.55;;;11.77;;
26702;SDS011;14316;51.074;3.704;2023-04-03T06:40:23;15.13;;;11.50;;
26702;SDS011;14316;51.074;3.704;2023-04-03T06:42:51;15.20;;;11.48;;
26702;SDS011;14316;51.074;3.704;2023-04-03T06:45:17;18.33;;;11.77;;
26702;SDS011;14316;51.074;3.704;2023-04-03T06:47:43;14.68;;;11.77;;
26702;SDS011;14316;51.074;3.704;2023-04-03T06:50:10;18.52;;;11.50;;
26702;SDS011;14316;51.074;3.704;2023-04-03T06:52:39;16.20;;;11.85;;
26702;SDS011;14316;51.074;3.704;2023-04-03T06:55:05;19.52;;;11.15;;
26702;SDS011;14316;51.074;3.704;2023-04-03T06:57:32;18.05;;;11.15;;
26702;SDS011;14316;51.074;3.704;2023-04-03T06:59:58;14.98;;;11.38;;
26702;SDS011;14316;51.074;3.704;2023-04-03T07:02:24;15.85;;;11.77;;
26702;SDS011;14316;51.074;3.704;2023-04-03T07:04:51;14.25;;;11.02;;
26702;SDS011;14316;51.074;3.704;2023-04-03T07:07:17;18.17;;;10.68;;
26702;SDS011;14316;51.074;3.704;2023-04-03T07:09:43;16.85;;;11.13;;
26702;SDS011;14316;51.074;3.704;2023-04-03T07:12:09;16.60;;;11.70;;
26702;SDS011;14316;51.074;3.704;2023-04-03T07:14:35;14.07;;;11.73;;
26702;SDS011;14316;51.074;3.704;2023-04-03T07:17:01;14.77;;;10.68;;
26702;SDS011;14316;51.074;3.704;2023-04-03T07:19:27;46.90;;;14.68;;
26702;SDS011;14316;51.074;3.704;2023-04-03T07:21:54;19.67;;;9.93;;
26702;SDS011;14316;51.074;3.704;2023-04-03T07:24:20;11.07;;;9.13;;
26702;SDS011;14316;51.074;3.704;2023-04-03T07:26:50;21.15;;;10.05;;
26702;SDS011;14316;51.074;3.704;2023-04-03T07:29:17;13.65;;;9.38;;
26702;SDS011;14316;51.074;3.704;2023-04-03T07:31:43;15.13;;;10.18;;
26702;SDS011;14316;51.074;3.704;2023-04-03T07:34:10;14.65;;;10.38;;
26702;SDS011;14316;51.074;3.704;2023-04-03T07:36:36;19.17;;;11.70;;
26702;SDS011;14316;51.074;3.704;2023-04-03T07:39:03;12.38;;;9.40;;
26702;SDS011;14316;51.074;3.704;2023-04-03T07:41:29;12.13;;;9.13;;
26702;SDS011;14316;51.074;3.704;2023-04-03T07:43:55;12.68;;;9.80;;
26702;SDS011;14316;51.074;3.704;2023-04-03T07:46:22;13.35;;;10.65;;
26702;SDS011;14316;51.074;3.704;2023-04-03T07:48:48;12.45;;;10.55;;
26702;SDS011;14316;51.074;3.704;2023-04-03T07:51:17;14.90;;;10.48;;
26702;SDS011;14316;51.074;3.704;2023-04-03T07:53:51;13.98;;;11.05;;
26702;SDS011;14316;51.074;3.704;2023-04-03T07:56:20;15.27;;;9.13;;
26702;SDS011;14316;51.074;3.704;2023-04-03T07:58:47;13.30;;;9.45;;
26702;SDS011;14316;51.074;3.704;2023-04-03T08:01:15;15.55;;;9.50;;
26702;SDS011;14316;51.074;3.704;2023-04-03T08:03:42;12.57;;;9.27;;
26702;SDS011;14316;51.074;3.704;2023-04-03T08:06:08;11.25;;;8.80;;
26702;SDS011;14316;51.074;3.704;2023-04-03T08:08:34;11.90;;;8.88;;
26702;SDS011;14316;51.074;3.704;2023-04-03T08:11:01;11.98;;;8.60;;
26702;SDS011;14316;51.074;3.704;2023-04-03T08:13:28;12.95;;;9.50;;
26702;SDS011;14316;51.074;3.704;2023-04-03T08:15:55;12.93;;;9.20;;
26702;SDS011;14316;51.074;3.704;2023-04-03T08:18:23;11.73;;;9.45;;
26702;SDS011;14316;51.074;3.704;2023-04-03T08:20:50;14.98;;;9.95;;
26702;SDS011;14316;51.074;3.704;2023-04-03T08:23:17;15.02;;;9.50;;
26702;SDS011;14316;51.074;3.704;2023-04-03T08:25:43;13.50;;;8.85;;
26702;SDS011;14316;51.074;3.704;2023-04-03T08:28:10;10.45;;;8.88;;
26702;SDS011;14316;51.074;3.704;2023-04-03T08:30:40;10.77;;;8.90;;
26702;SDS011;14316;51.074;3.704;2023-04-03T08:33:07;10.43;;;8.23;;
26702;SDS011;14316;51.074;3.704;2023-04-03T08:35:37;11.27;;;8.90;;
26702;SDS011;14316;51.074;3.704;2023-04-03T08:38:05;15.37;;;9.47;;
26702;SDS011;14316;51.074;3.704;2023-04-03T08:40:31;11.40;;;8.25;;
26702;SDS011;14316;51.074;3.704;2023-04-03T08:45:37;12.75;;;7.53;;
26702;SDS011;14316;51.074;3.704;2023-04-03T08:48:14;11.45;;;7.60;;
26702;SDS011;14316;51.074;3.704;2023-04-03T08:50:47;11.07;;;7.30;;
26702;SDS011;14316;51.074;3.704;2023-04-03T08:53:17;8.10;;;7.20;;
26702;SDS011;14316;51.074;3.704;2023-04-03T08:55:50;9.88;;;6.85;;
26702;SDS011;14316;51.074;3.704;2023-04-03T08:58:21;7.70;;;6.47;;
26702;SDS011;14316;51.074;3.704;2023-04-03T09:03:38;9.43;;;6.20;;
26702;SDS011;14316;51.074;3.704;2023-04-03T09:06:15;10.30;;;7.00;;
26702;SDS011;14316;51.074;3.704;2023-04-03T09:08:51;7.65;;;5.68;;
26702;SDS011;14316;51.074;3.704;2023-04-03T09:17:13;8.75;;;4.70;;
26702;SDS011;14316;51.074;3.704;2023-04-03T09:19:50;7.50;;;4.40;;
26702;SDS011;14316;51.074;3.704;2023-04-03T09:22:19;9.73;;;5.13;;
26702;SDS011;14316;51.074;3.704;2023-04-03T09:27:31;7.18;;;3.70;;
26702;SDS011;14316;51.074;3.704;2023-04-03T09:29:56;6.55;;;3.42;;
26702;SDS011;14316;51.074;3.704;2023-04-03T09:32:30;6.93;;;3.53;;
26702;SDS011;14316;51.074;3.704;2023-04-03T09:34:59;5.47;;;3.25;;
26702;SDS011;14316;51.074;3.704;2023-04-03T09:37:41;7.10;;;3.80;;
26702;SDS011;14316;51.074;3.704;2023-04-03T09:42:56;6.72;;;3.00;;
26702;SDS011;14316;51.074;3.704;2023-04-03T09:48:05;7.68;;;3.55;;
26702;SDS011;14316;51.074;3.704;2023-04-03T09:50:59;5.15;;;3.10;;
26702;SDS011;14316;51.074;3.704;2023-04-03T09:53:32;8.05;;;3.40;;
26702;SDS011;14316;51.074;3.704;2023-04-03T09:56:04;4.65;;;3.35;;
26702;SDS011;14316;51.074;3.704;2023-04-03T10:01:30;7.43;;;4.10;;
26702;SDS011;14316;51.074;3.704;2023-04-03T10:06:40;5.90;;;3.38;;
26702;SDS011;14316;51.074;3.704;2023-04-03T10:12:01;5.10;;;3.72;;
26702;SDS011;14316;51.074;3.704;2023-04-03T10:14:40;7.15;;;3.88;;
26702;SDS011;14316;51.074;3.704;2023-04-03T10:20:23;8.18;;;3.75;;
26702;SDS011;14316;51.074;3.704;2023-04-03T10:25:40;5.28;;;3.25;;
26702;SDS011;14316;51.074;3.704;2023-04-03T10:28:48;9.18;;;4.00;;
26702;SDS011;14316;51.074;3.704;2023-04-03T10:31:13;4.90;;;3.00;;
26702;SDS011;14316;51.074;3.704;2023-04-03T10:39:08;6.78;;;3.25;;
26702;SDS011;14316;51.074;3.704;2023-04-03T10:47:40;5.35;;;2.40;;
26702;SDS011;14316;51.074;3.704;2023-04-03T10:55:48;5.40;;;2.22;;
26702;SDS011;14316;51.074;3.704;2023-04-03T10:58:28;4.17;;;2.73;;
26702;SDS011;14316;51.074;3.704;2023-04-03T11:00:55;4.97;;;2.50;;
26702;SDS011;14316;51.074;3.704;2023-04-03T11:03:30;6.27;;;2.63;;
26702;SDS011;14316;51.074;3.704;2023-04-03T11:06:10;5.95;;;2.60;;
26702;SDS011;14316;51.074;3.704;2023-04-03T11:09:24;4.97;;;2.70;;
26702;SDS011;14316;51.074;3.704;2023-04-03T11:11:32;9.02;;;2.90;;
26702;SDS011;14316;51.074;3.704;2023-04-03T11:14:11;4.00;;;2.30;;
26702;SDS011;14316;51.074;3.704;2023-04-03T11:16:42;3.58;;;2.50;;
26702;SDS011;14316;51.074;3.704;2023-04-03T11:19:19;6.93;;;2.40;;
26702;SDS011;14316;51.074;3.704;2023-04-03T11:22:03;3.53;;;2.30;;
26702;SDS011;14316;51.074;3.704;2023-04-03T11:24:56;4.28;;;2.45;;
26702;SDS011;14316;51.074;3.704;2023-04-03T11:27:30;32.80;;;6.53;;
26702;SDS011;14316;51.074;3.704;2023-04-03T11:30:05;6.38;;;2.22;;
26702;SDS011;14316;51.074;3.704;2023-04-03T11:32:47;3.78;;;2.30;;
26702;SDS011;14316;51.074;3.704;2023-04-03T11:35:21;8.70;;;2.53;;
26702;SDS011;14316;51.074;3.704;2023-04-03T11:37:48;14.40;;;3.15;;
26702;SDS011;14316;51.074;3.704;2023-04-03T11:47:57;7.22;;;2.28;;
26702;SDS011;14316;51.074;3.704;2023-04-03T11:50:40;4.40;;;2.00;;
26702;SDS011;14316;51.074;3.704;2023-04-03T12:16:42;4.38;;;2.30;;
26702;SDS011;14316;51.074;3.704;2023-04-03T12:22:26;6.63;;;2.60;;
26702;SDS011;14316;51.074;3.704;2023-04-03T12:24:35;4.50;;;2.22;;
26702;SDS011;14316;51.074;3.704;2023-04-03T12:32:37;5.88;;;2.40;;
26702;SDS011;14316;51.074;3.704;2023-04-03T12:43:44;3.83;;;2.42;;
26702;SDS011;14316;51.074;3.704;2023-04-03T12:46:28;5.00;;;2.00;;
26702;SDS011;14316;51.074;3.704;2023-04-03T12:49:12;6.93;;;2.70;;
26702;SDS011;14316;51.074;3.704;2023-04-03T12:52:12;3.90;;;2.38;;
26702;SDS011;14316;51.074;3.704;2023-04-03T12:54:47;4.65;;;2.33;;
26702;SDS011;14316;51.074;3.704;2023-04-03T12:57:20;3.58;;;2.03;;
26702;SDS011;14316;51.074;3.704;2023-04-03T12:59:50;3.90;;;2.40;;
26702;SDS011;14316;51.074;3.704;2023-04-03T13:02:23;3.05;;;2.30;;
26702;SDS011;14316;51.074;3.704;2023-04-03T13:04:51;2.92;;;2.00;;
26702;SDS011;14316;51.074;3.704;2023-04-03T13:07:22;4.55;;;2.67;;
26702;SDS011;14316;51.074;3.704;2023-04-03T13:09:56;5.15;;;2.50;;
26702;SDS011;14316;51.074;3.704;2023-04-03T13:12:54;5.00;;;2.50;;
26702;SDS011;14316;51.074;3.704;2023-04-03T13:15:26;5.35;;;1.90;;
26702;SDS011;14316;51.074;3.704;2023-04-03T13:18:04;3.78;;;2.00;;
26702;SDS011;14316;51.074;3.704;2023-04-03T13:20:46;3.13;;;1.88;;
26702;SDS011;14316;51.074;3.704;2023-04-03T13:23:14;4.68;;;2.53;;
26702;SDS011;14316;51.074;3.704;2023-04-03T13:25:45;3.70;;;2.00;;
26702;SDS011;14316;51.074;3.704;2023-04-03T13:28:14;6.95;;;2.03;;
26702;SDS011;14316;51.074;3.704;2023-04-03T13:31:35;2.95;;;1.60;;
26702;SDS011;14316;51.074;3.704;2023-04-03T13:33:43;5.03;;;2.20;;
26702;SDS011;14316;51.074;3.704;2023-04-03T13:36:40;3.25;;;1.50;;
26702;SDS011;14316;51.074;3.704;2023-04-03T13:41:37;5.28;;;2.17;;
26702;SDS011;14316;51.074;3.704;2023-04-03T13:44:23;3.05;;;1.88;;
26702;SDS011;14316;51.074;3.704;2023-04-03T13:47:00;4.00;;;1.60;;
26702;SDS011;14316;51.074;3.704;2023-04-03T13:49:44;2.00;;;1.55;;
26702;SDS011;14316;51.074;3.704;2023-04-03T13:52:25;4.40;;;1.70;;
26702;SDS011;14316;51.074;3.704;2023-04-03T13:54:57;2.58;;;1.65;;
26702;SDS011;14316;51.074;3.704;2023-04-03T13:57:26;1.63;;;1.20;;
26702;SDS011;14316;51.074;3.704;2023-04-03T13:59:53;2.33;;;1.65;;
26702;SDS011;14316;51.074;3.704;2023-04-03T14:02:26;3.72;;;1.75;;
26702;SDS011;14316;51.074;3.704;2023-04-03T14:04:59;5.85;;;1.63;;
26702;SDS011;14316;51.074;3.704;2023-04-03T14:07:27;2.60;;;1.42;;
26702;SDS011;14316;51.074;3.704;2023-04-03T14:09:56;4.18;;;1.67;;
26702;SDS011;14316;51.074;3.704;2023-04-03T14:12:35;4.43;;;1.75;;
26702;SDS011;14316;51.074;3.704;2023-04-03T14:15:06;2.20;;;1.50;;
26702;SDS011;14316;51.074;3.704;2023-04-03T14:17:53;3.55;;;1.85;;
26702;SDS011;14316;51.074;3.704;2023-04-03T14:20:22;2.42;;;1.40;;
26702;SDS011;14316;51.074;3.704;2023-04-03T14:22:49;2.78;;;1.48;;
26702;SDS011;14316;51.074;3.704;2023-04-03T14:25:16;2.30;;;1.60;;
26702;SDS011;14316;51.074;3.704;2023-04-03T14:27:44;3.65;;;1.85;;
26702;SDS011;14316;51.074;3.704;2023-04-03T14:30:14;2.50;;;2.30;;
26702;SDS011;14316;51.074;3.704;2023-04-03T14:32:46;3.47;;;1.45;;
26702;SDS011;14316;51.074;3.704;2023-04-03T14:35:13;3.38;;;1.70;;
26702;SDS011;14316;51.074;3.704;2023-04-03T14:37:40;3.58;;;2.15;;
26702;SDS011;14316;51.074;3.704;2023-04-03T14:40:07;2.20;;;1.40;;
26702;SDS011;14316;51.074;3.704;2023-04-03T14:42:36;3.80;;;2.05;;
26702;SDS011;14316;51.074;3.704;2023-04-03T14:45:04;2.53;;;2.20;;
26702;SDS011;14316;51.074;3.704;2023-04-03T14:47:35;4.13;;;1.73;;
26702;SDS011;14316;51.074;3.704;2023-04-03T14:52:34;5.10;;;1.80;;
26702;SDS011;14316;51.074;3.704;2023-04-03T14:55:02;2.67;;;1.70;;
26702;SDS011;14316;51.074;3.704;2023-04-03T14:57:30;5.95;;;2.10;;
26702;SDS011;14316;51.074;3.704;2023-04-03T14:59:57;4.20;;;1.77;;
26702;SDS011;14316;51.074;3.704;2023-04-03T15:02:24;3.17;;;1.63;;
26702;SDS011;14316;51.074;3.704;2023-04-03T15:04:54;2.55;;;1.77;;
26702;SDS011;14316;51.074;3.704;2023-04-03T15:07:21;4.88;;;1.75;;
26702;SDS011;14316;51.074;3.704;2023-04-03T15:09:48;2.95;;;1.83;;
26702;SDS011;14316;51.074;3.704;2023-04-03T15:12:15;4.15;;;1.77;;
26702;SDS011;14316;51.074;3.704;2023-04-03T15:14:41;3.30;;;1.70;;
26702;SDS011;14316;51.074;3.704;2023-04-03T15:17:14;2.88;;;1.70;;
26702;SDS011;14316;51.074;3.704;2023-04-03T15:19:42;3.78;;;1.80;;
26702;SDS011;14316;51.074;3.704;2023-04-03T15:22:12;4.35;;;1.88;;
26702;SDS011;14316;51.074;3.704;2023-04-03T15:24:39;4.07;;;1.80;;
26702;SDS011;14316;51.074;3.704;2023-04-03T15:27:05;2.97;;;1.65;;
26702;SDS011;14316;51.074;3.704;2023-04-03T15:29:32;6.07;;;1.85;;
26702;SDS011;14316;51.074;3.704;2023-04-03T15:31:58;2.55;;;1.55;;
26702;SDS011;14316;51.074;3.704;2023-04-03T15:34:25;2.70;;;1.55;;
26702;SDS011;14316;51.074;3.704;2023-04-03T15:36:51;3.15;;;1.60;;
26702;SDS011;14316;51.074;3.704;2023-04-03T15:39:20;3.17;;;1.83;;
26702;SDS011;14316;51.074;3.704;2023-04-03T15:41:48;2.85;;;2.00;;
26702;SDS011;14316;51.074;3.704;2023-04-03T15:44:18;2.83;;;2.00;;
26702;SDS011;14316;51.074;3.704;2023-04-03T15:46:45;1.42;;;1.33;;
26702;SDS011;14316;51.074;3.704;2023-04-03T15:49:14;17.38;;;2.90;;
26702;SDS011;14316;51.074;3.704;2023-04-03T15:51:40;3.90;;;1.85;;
26702;SDS011;14316;51.074;3.704;2023-04-03T15:54:07;6.25;;;2.33;;
26702;SDS011;14316;51.074;3.704;2023-04-03T15:56:33;4.25;;;1.58;;
26702;SDS011;14316;51.074;3.704;2023-04-03T15:59:00;4.47;;;1.88;;
26702;SDS011;14316;51.074;3.704;2023-04-03T16:01:28;3.30;;;1.60;;
26702;SDS011;14316;51.074;3.704;2023-04-03T16:03:57;4.22;;;1.83;;
26702;SDS011;14316;51.074;3.704;2023-04-03T16:06:23;3.78;;;1.50;;
26702;SDS011;14316;51.074;3.704;2023-04-03T16:08:55;2.10;;;1.48;;
26702;SDS011;14316;51.074;3.704;2023-04-03T16:11:24;3.55;;;1.50;;
26702;SDS011;14316;51.074;3.704;2023-04-03T16:13:51;3.75;;;2.10;;
26702;SDS011;14316;51.074;3.704;2023-04-03T16:16:17;2.60;;;1.50;;
26702;SDS011;14316;51.074;3.704;2023-04-03T16:18:44;3.38;;;1.50;;
26702;SDS011;14316;51.074;3.704;2023-04-03T16:21:11;4.57;;;1.77;;
26702;SDS011;14316;51.074;3.704;2023-04-03T16:23:40;2.65;;;1.42;;
26702;SDS011;14316;51.074;3.704;2023-04-03T16:26:06;4.07;;;1.73;;
26702;SDS011;14316;51.074;3.704;2023-04-03T16:28:32;4.88;;;1.80;;
26702;SDS011;14316;51.074;3.704;2023-04-03T16:30:59;3.40;;;1.85;;
26702;SDS011;14316;51.074;3.704;2023-04-03T16:33:26;5.63;;;2.10;;
26702;SDS011;14316;51.074;3.704;2023-04-03T16:35:53;3.85;;;1.83;;
26702;SDS011;14316;51.074;3.704;2023-04-03T16:38:19;6.05;;;1.90;;
26702;SDS011;14316;51.074;3.704;2023-04-03T16:40:47;2.72;;;1.58;;
26702;SDS011;14316;51.074;3.704;2023-04-03T16:43:14;4.00;;;1.60;;